sensor_id;sensor_type;location;lat;lon;timestamp;P1;durP1;ratioP1;P2;durP2;ratioP2
21503;SDS011;10913;51.992;9.228;2022-07-24T00:01:57;2.22;;;1.50;;
21503;SDS011;10913;51.992;9.228;2022-07-24T00:04:23;2.53;;;1.60;;
21503;SDS011;10913;51.992;9.228;2022-07-24T00:06:48;1.75;;;1.52;;
21503;SDS011;10913;51.992;9.228;2022-07-24T00:09:14;1.40;;;1.30;;
21503;SDS011;10913;51.992;9.228;2022-07-24T00:11:39;1.80;;;1.30;;
21503;SDS011;10913;51.992;9.228;2022-07-24T00:14:04;1.60;;;1.50;;
21503;SDS011;10913;51.992;9.228;2022-07-24T00:16:30;2.38;;;1.70;;
21503;SDS011;10913;51.992;9.228;2022-07-24T00:18:55;1.58;;;1.48;;
21503;SDS011;10913;51.992;9.228;2022-07-24T00:21:21;1.63;;;1.40;;
21503;SDS011;10913;51.992;9.228;2022-07-24T00:23:46;1.30;;;1.20;;
21503;SDS011;10913;51.992;9.228;2022-07-24T00:26:12;1.60;;;1.50;;
21503;SDS011;10913;51.992;9.228;2022-07-24T00:28:38;1.77;;;1.30;;
21503;SDS011;10913;51.992;9.228;2022-07-24T00:31:03;1.58;;;1.48;;
21503;SDS011;10913;51.992;9.228;2022-07-24T00:33:30;1.50;;;1.40;;
21503;SDS011;10913;51.992;9.228;2022-07-24T00:35:55;1.70;;;1.60;;
21503;SDS011;10913;51.992;9.228;2022-07-24T00:38:21;1.85;;;1.63;;
21503;SDS011;10913;51.992;9.228;2022-07-24T00:40:46;2.17;;;1.40;;
21503;SDS011;10913;51.992;9.228;2022-07-24T00:43:11;2.65;;;1.50;;
21503;SDS011;10913;51.992;9.228;2022-07-24T00:45:38;1.63;;;1.52;;
21503;SDS011;10913;51.992;9.228;2022-07-24T00:48:03;2.30;;;2.10;;
21503;SDS011;10913;51.992;9.228;2022-07-24T00:50:30;2.25;;;2.05;;
21503;SDS011;10913;51.992;9.228;2022-07-24T00:52:56;1.90;;;1.80;;
21503;SDS011;10913;51.992;9.228;2022-07-24T00:55:22;2.60;;;1.90;;
21503;SDS011;10913;51.992;9.228;2022-07-24T00:57:48;1.65;;;1.55;;
21503;SDS011;10913;51.992;9.228;2022-07-24T01:00:15;2.00;;;1.75;;
21503;SDS011;10913;51.992;9.228;2022-07-24T01:02:41;1.80;;;1.70;;
21503;SDS011;10913;51.992;9.228;2022-07-24T01:05:10;1.60;;;1.50;;
21503;SDS011;10913;51.992;9.228;2022-07-24T01:07:36;4.20;;;1.60;;
21503;SDS011;10913;51.992;9.228;2022-07-24T01:10:03;2.60;;;1.70;;
21503;SDS011;10913;51.992;9.228;2022-07-24T01:12:30;1.90;;;1.65;;
21503;SDS011;10913;51.992;9.228;2022-07-24T01:14:57;2.10;;;1.55;;
21503;SDS011;10913;51.992;9.228;2022-07-24T01:17:22;1.50;;;1.40;;
21503;SDS011;10913;51.992;9.228;2022-07-24T01:19:48;3.25;;;1.45;;
21503;SDS011;10913;51.992;9.228;2022-07-24T01:22:15;1.60;;;1.50;;
21503;SDS011;10913;51.992;9.228;2022-07-24T01:24:40;1.98;;;1.77;;
21503;SDS011;10913;51.992;9.228;2022-07-24T01:27:06;1.98;;;1.75;;
21503;SDS011;10913;51.992;9.228;2022-07-24T01:29:32;1.65;;;1.55;;
21503;SDS011;10913;51.992;9.228;2022-07-24T01:31:58;2.10;;;1.85;;
21503;SDS011;10913;51.992;9.228;2022-07-24T01:34:24;1.63;;;1.52;;
21503;SDS011;10913;51.992;9.228;2022-07-24T01:36:50;1.60;;;1.48;;
21503;SDS011;10913;51.992;9.228;2022-07-24T01:39:15;1.70;;;1.60;;
21503;SDS011;10913;51.992;9.228;2022-07-24T01:41:40;2.33;;;1.52;;
21503;SDS011;10913;51.992;9.228;2022-07-24T01:44:06;2.28;;;1.60;;
21503;SDS011;10913;51.992;9.228;2022-07-24T01:46:31;1.83;;;1.73;;
21503;SDS011;10913;51.992;9.228;2022-07-24T01:48:57;2.20;;;1.60;;
21503;SDS011;10913;51.992;9.228;2022-07-24T01:51:22;1.80;;;1.70;;
21503;SDS011;10913;51.992;9.228;2022-07-24T01:53:47;2.15;;;2.00;;
21503;SDS011;10913;51.992;9.228;2022-07-24T01:56:13;2.00;;;1.77;;
21503;SDS011;10913;51.992;9.228;2022-07-24T01:58:38;1.70;;;1.60;;
21503;SDS011;10913;51.992;9.228;2022-07-24T02:01:04;2.28;;;1.60;;
21503;SDS011;10913;51.992;9.228;2022-07-24T02:03:30;2.05;;;1.60;;
21503;SDS011;10913;51.992;9.228;2022-07-24T02:05:56;1.92;;;1.63;;
21503;SDS011;10913;51.992;9.228;2022-07-24T02:08:21;1.50;;;1.40;;
21503;SDS011;10913;51.992;9.228;2022-07-24T02:10:46;1.60;;;1.50;;
21503;SDS011;10913;51.992;9.228;2022-07-24T02:13:12;2.75;;;1.63;;
21503;SDS011;10913;51.992;9.228;2022-07-24T02:15:37;2.53;;;1.85;;
21503;SDS011;10913;51.992;9.228;2022-07-24T02:18:03;1.80;;;1.70;;
21503;SDS011;10913;51.992;9.228;2022-07-24T02:20:28;1.80;;;1.70;;
21503;SDS011;10913;51.992;9.228;2022-07-24T02:22:54;1.90;;;1.70;;
21503;SDS011;10913;51.992;9.228;2022-07-24T02:25:20;2.17;;;1.83;;
21503;SDS011;10913;51.992;9.228;2022-07-24T02:27:46;2.15;;;1.95;;
21503;SDS011;10913;51.992;9.228;2022-07-24T02:30:16;2.05;;;1.85;;
21503;SDS011;10913;51.992;9.228;2022-07-24T02:32:44;2.05;;;1.73;;
21503;SDS011;10913;51.992;9.228;2022-07-24T02:35:10;2.00;;;1.80;;
21503;SDS011;10913;51.992;9.228;2022-07-24T02:37:36;1.70;;;1.60;;
21503;SDS011;10913;51.992;9.228;2022-07-24T02:40:04;2.00;;;1.90;;
21503;SDS011;10913;51.992;9.228;2022-07-24T02:42:31;2.42;;;1.80;;
21503;SDS011;10913;51.992;9.228;2022-07-24T02:44:56;2.72;;;1.92;;
21503;SDS011;10913;51.992;9.228;2022-07-24T02:47:21;2.28;;;2.13;;
21503;SDS011;10913;51.992;9.228;2022-07-24T02:49:47;1.80;;;1.70;;
21503;SDS011;10913;51.992;9.228;2022-07-24T02:52:12;1.88;;;1.77;;
21503;SDS011;10913;51.992;9.228;2022-07-24T02:54:38;1.92;;;1.83;;
21503;SDS011;10913;51.992;9.228;2022-07-24T02:57:03;1.70;;;1.60;;
21503;SDS011;10913;51.992;9.228;2022-07-24T02:59:28;1.90;;;1.70;;
21503;SDS011;10913;51.992;9.228;2022-07-24T03:01:54;3.70;;;1.80;;
21503;SDS011;10913;51.992;9.228;2022-07-24T03:04:19;1.95;;;1.83;;
21503;SDS011;10913;51.992;9.228;2022-07-24T03:06:44;2.00;;;1.80;;
21503;SDS011;10913;51.992;9.228;2022-07-24T03:09:10;2.10;;;1.65;;
21503;SDS011;10913;51.992;9.228;2022-07-24T03:11:35;2.83;;;1.77;;
21503;SDS011;10913;51.992;9.228;2022-07-24T03:14:01;1.70;;;1.60;;
21503;SDS011;10913;51.992;9.228;2022-07-24T03:16:26;2.00;;;1.90;;
21503;SDS011;10913;51.992;9.228;2022-07-24T03:18:51;2.55;;;1.75;;
21503;SDS011;10913;51.992;9.228;2022-07-24T03:21:17;1.98;;;1.88;;
21503;SDS011;10913;51.992;9.228;2022-07-24T03:23:44;1.90;;;1.80;;
21503;SDS011;10913;51.992;9.228;2022-07-24T03:26:09;1.75;;;1.65;;
21503;SDS011;10913;51.992;9.228;2022-07-24T03:28:35;2.08;;;1.88;;
21503;SDS011;10913;51.992;9.228;2022-07-24T03:31:00;2.42;;;1.90;;
21503;SDS011;10913;51.992;9.228;2022-07-24T03:33:27;1.80;;;1.70;;
21503;SDS011;10913;51.992;9.228;2022-07-24T03:35:53;2.38;;;1.80;;
21503;SDS011;10913;51.992;9.228;2022-07-24T03:38:19;1.90;;;1.80;;
21503;SDS011;10913;51.992;9.228;2022-07-24T03:40:44;2.67;;;1.75;;
21503;SDS011;10913;51.992;9.228;2022-07-24T03:43:10;2.10;;;1.75;;
21503;SDS011;10913;51.992;9.228;2022-07-24T03:45:35;1.88;;;1.77;;
21503;SDS011;10913;51.992;9.228;2022-07-24T03:48:01;1.70;;;1.60;;
21503;SDS011;10913;51.992;9.228;2022-07-24T03:50:26;1.83;;;1.70;;
21503;SDS011;10913;51.992;9.228;2022-07-24T03:52:52;2.17;;;1.98;;
21503;SDS011;10913;51.992;9.228;2022-07-24T03:55:17;1.80;;;1.70;;
21503;SDS011;10913;51.992;9.228;2022-07-24T03:57:43;2.47;;;2.28;;
21503;SDS011;10913;51.992;9.228;2022-07-24T04:00:09;4.03;;;2.00;;
21503;SDS011;10913;51.992;9.228;2022-07-24T04:02:34;3.63;;;1.95;;
21503;SDS011;10913;51.992;9.228;2022-07-24T04:05:00;2.55;;;1.85;;
21503;SDS011;10913;51.992;9.228;2022-07-24T04:07:25;2.00;;;1.90;;
21503;SDS011;10913;51.992;9.228;2022-07-24T04:09:51;2.40;;;2.20;;
21503;SDS011;10913;51.992;9.228;2022-07-24T04:12:16;2.38;;;2.10;;
21503;SDS011;10913;51.992;9.228;2022-07-24T04:14:42;1.90;;;1.80;;
21503;SDS011;10913;51.992;9.228;2022-07-24T04:17:08;2.38;;;2.10;;
21503;SDS011;10913;51.992;9.228;2022-07-24T04:19:33;2.17;;;1.98;;
21503;SDS011;10913;51.992;9.228;2022-07-24T04:21:59;1.90;;;1.80;;
21503;SDS011;10913;51.992;9.228;2022-07-24T04:24:24;1.80;;;1.70;;
21503;SDS011;10913;51.992;9.228;2022-07-24T04:26:49;1.98;;;1.80;;
21503;SDS011;10913;51.992;9.228;2022-07-24T04:29:15;1.90;;;1.80;;
21503;SDS011;10913;51.992;9.228;2022-07-24T04:31:40;2.28;;;2.08;;
21503;SDS011;10913;51.992;9.228;2022-07-24T04:34:06;2.20;;;2.00;;
21503;SDS011;10913;51.992;9.228;2022-07-24T04:36:31;2.25;;;1.98;;
21503;SDS011;10913;51.992;9.228;2022-07-24T04:38:56;2.00;;;1.80;;
21503;SDS011;10913;51.992;9.228;2022-07-24T04:41:22;2.05;;;1.90;;
21503;SDS011;10913;51.992;9.228;2022-07-24T04:43:47;2.33;;;1.90;;
21503;SDS011;10913;51.992;9.228;2022-07-24T04:46:13;2.28;;;2.05;;
21503;SDS011;10913;51.992;9.228;2022-07-24T04:48:39;2.90;;;2.15;;
21503;SDS011;10913;51.992;9.228;2022-07-24T04:51:04;2.38;;;2.13;;
21503;SDS011;10913;51.992;9.228;2022-07-24T04:53:30;2.20;;;2.00;;
21503;SDS011;10913;51.992;9.228;2022-07-24T04:55:56;2.13;;;1.92;;
21503;SDS011;10913;51.992;9.228;2022-07-24T04:58:22;2.00;;;1.90;;
21503;SDS011;10913;51.992;9.228;2022-07-24T05:00:48;2.40;;;2.17;;
21503;SDS011;10913;51.992;9.228;2022-07-24T05:03:13;3.30;;;1.95;;
21503;SDS011;10913;51.992;9.228;2022-07-24T05:05:38;2.25;;;2.05;;
21503;SDS011;10913;51.992;9.228;2022-07-24T05:08:04;2.08;;;1.98;;
21503;SDS011;10913;51.992;9.228;2022-07-24T05:10:29;2.20;;;2.00;;
21503;SDS011;10913;51.992;9.228;2022-07-24T05:12:55;1.80;;;1.70;;
21503;SDS011;10913;51.992;9.228;2022-07-24T05:15:20;2.10;;;1.90;;
21503;SDS011;10913;51.992;9.228;2022-07-24T05:17:46;2.42;;;2.22;;
21503;SDS011;10913;51.992;9.228;2022-07-24T05:20:12;2.13;;;2.03;;
21503;SDS011;10913;51.992;9.228;2022-07-24T05:22:38;2.25;;;2.00;;
21503;SDS011;10913;51.992;9.228;2022-07-24T05:25:03;2.30;;;2.10;;
21503;SDS011;10913;51.992;9.228;2022-07-24T05:27:29;3.25;;;2.13;;
21503;SDS011;10913;51.992;9.228;2022-07-24T05:29:54;2.60;;;2.30;;
21503;SDS011;10913;51.992;9.228;2022-07-24T05:32:20;2.30;;;2.10;;
21503;SDS011;10913;51.992;9.228;2022-07-24T05:34:45;2.38;;;2.15;;
21503;SDS011;10913;51.992;9.228;2022-07-24T05:37:11;2.65;;;2.45;;
21503;SDS011;10913;51.992;9.228;2022-07-24T05:39:36;2.75;;;2.50;;
21503;SDS011;10913;51.992;9.228;2022-07-24T05:42:02;2.28;;;2.10;;
21503;SDS011;10913;51.992;9.228;2022-07-24T05:44:28;1.92;;;1.83;;
21503;SDS011;10913;51.992;9.228;2022-07-24T05:46:54;2.05;;;1.95;;
21503;SDS011;10913;51.992;9.228;2022-07-24T05:49:19;2.80;;;2.40;;
21503;SDS011;10913;51.992;9.228;2022-07-24T05:51:44;2.42;;;2.22;;
21503;SDS011;10913;51.992;9.228;2022-07-24T05:54:10;2.67;;;2.35;;
21503;SDS011;10913;51.992;9.228;2022-07-24T05:56:35;2.65;;;2.10;;
21503;SDS011;10913;51.992;9.228;2022-07-24T05:59:01;2.80;;;2.15;;
21503;SDS011;10913;51.992;9.228;2022-07-24T06:01:26;2.30;;;2.10;;
21503;SDS011;10913;51.992;9.228;2022-07-24T06:03:52;3.33;;;1.98;;
21503;SDS011;10913;51.992;9.228;2022-07-24T06:06:17;2.10;;;1.98;;
21503;SDS011;10913;51.992;9.228;2022-07-24T06:08:43;2.22;;;1.95;;
21503;SDS011;10913;51.992;9.228;2022-07-24T06:11:10;2.40;;;2.15;;
21503;SDS011;10913;51.992;9.228;2022-07-24T06:13:35;2.20;;;2.00;;
21503;SDS011;10913;51.992;9.228;2022-07-24T06:16:01;2.15;;;2.05;;
21503;SDS011;10913;51.992;9.228;2022-07-24T06:18:27;2.00;;;1.80;;
21503;SDS011;10913;51.992;9.228;2022-07-24T06:20:52;2.30;;;2.10;;
21503;SDS011;10913;51.992;9.228;2022-07-24T06:23:19;2.10;;;1.90;;
21503;SDS011;10913;51.992;9.228;2022-07-24T06:25:45;1.80;;;1.70;;
21503;SDS011;10913;51.992;9.228;2022-07-24T06:28:10;3.67;;;2.17;;
21503;SDS011;10913;51.992;9.228;2022-07-24T06:30:36;2.33;;;2.13;;
21503;SDS011;10913;51.992;9.228;2022-07-24T06:33:01;2.03;;;1.90;;
21503;SDS011;10913;51.992;9.228;2022-07-24T06:35:27;3.83;;;2.03;;
21503;SDS011;10913;51.992;9.228;2022-07-24T06:37:53;3.30;;;2.22;;
21503;SDS011;10913;51.992;9.228;2022-07-24T06:40:20;2.58;;;2.00;;
21503;SDS011;10913;51.992;9.228;2022-07-24T06:42:46;1.90;;;1.80;;
21503;SDS011;10913;51.992;9.228;2022-07-24T06:45:13;2.55;;;1.83;;
21503;SDS011;10913;51.992;9.228;2022-07-24T06:47:39;2.15;;;1.98;;
21503;SDS011;10913;51.992;9.228;2022-07-24T06:50:05;3.35;;;2.00;;
21503;SDS011;10913;51.992;9.228;2022-07-24T06:52:31;2.65;;;2.17;;
21503;SDS011;10913;51.992;9.228;2022-07-24T06:54:56;4.32;;;1.80;;
21503;SDS011;10913;51.992;9.228;2022-07-24T06:57:22;2.30;;;2.03;;
21503;SDS011;10913;51.992;9.228;2022-07-24T06:59:50;6.28;;;2.03;;
21503;SDS011;10913;51.992;9.228;2022-07-24T07:02:19;4.80;;;2.20;;
21503;SDS011;10913;51.992;9.228;2022-07-24T07:04:45;2.03;;;1.85;;
21503;SDS011;10913;51.992;9.228;2022-07-24T07:07:11;2.22;;;1.90;;
21503;SDS011;10913;51.992;9.228;2022-07-24T07:09:36;2.90;;;2.22;;
21503;SDS011;10913;51.992;9.228;2022-07-24T07:12:02;2.17;;;1.98;;
21503;SDS011;10913;51.992;9.228;2022-07-24T07:14:28;2.63;;;2.00;;
21503;SDS011;10913;51.992;9.228;2022-07-24T07:16:54;5.07;;;2.13;;
21503;SDS011;10913;51.992;9.228;2022-07-24T07:19:19;4.07;;;2.00;;
21503;SDS011;10913;51.992;9.228;2022-07-24T07:21:45;2.92;;;2.17;;
21503;SDS011;10913;51.992;9.228;2022-07-24T07:24:10;3.17;;;2.30;;
21503;SDS011;10913;51.992;9.228;2022-07-24T07:26:36;2.47;;;1.90;;
21503;SDS011;10913;51.992;9.228;2022-07-24T07:29:01;2.72;;;1.85;;
21503;SDS011;10913;51.992;9.228;2022-07-24T07:31:26;2.30;;;2.10;;
21503;SDS011;10913;51.992;9.228;2022-07-24T07:33:53;2.95;;;2.10;;
21503;SDS011;10913;51.992;9.228;2022-07-24T07:36:18;2.55;;;2.00;;
21503;SDS011;10913;51.992;9.228;2022-07-24T07:38:44;3.47;;;2.20;;
21503;SDS011;10913;51.992;9.228;2022-07-24T07:41:10;2.75;;;2.05;;
21503;SDS011;10913;51.992;9.228;2022-07-24T07:43:35;2.50;;;2.30;;
21503;SDS011;10913;51.992;9.228;2022-07-24T07:46:01;4.22;;;2.53;;
21503;SDS011;10913;51.992;9.228;2022-07-24T07:48:26;4.03;;;2.20;;
21503;SDS011;10913;51.992;9.228;2022-07-24T07:50:53;3.13;;;2.70;;
21503;SDS011;10913;51.992;9.228;2022-07-24T07:53:18;3.70;;;2.45;;
21503;SDS011;10913;51.992;9.228;2022-07-24T07:55:44;4.22;;;2.40;;
21503;SDS011;10913;51.992;9.228;2022-07-24T07:58:13;4.28;;;2.72;;
21503;SDS011;10913;51.992;9.228;2022-07-24T08:00:39;3.38;;;2.45;;
21503;SDS011;10913;51.992;9.228;2022-07-24T08:03:04;6.70;;;2.97;;
21503;SDS011;10913;51.992;9.228;2022-07-24T08:05:30;4.28;;;2.72;;
21503;SDS011;10913;51.992;9.228;2022-07-24T08:07:55;3.10;;;2.80;;
21503;SDS011;10913;51.992;9.228;2022-07-24T08:10:21;4.03;;;2.90;;
21503;SDS011;10913;51.992;9.228;2022-07-24T08:12:46;3.15;;;2.85;;
21503;SDS011;10913;51.992;9.228;2022-07-24T08:15:12;3.42;;;3.13;;
21503;SDS011;10913;51.992;9.228;2022-07-24T08:17:37;3.63;;;2.90;;
21503;SDS011;10913;51.992;9.228;2022-07-24T08:20:03;3.15;;;2.58;;
21503;SDS011;10913;51.992;9.228;2022-07-24T08:22:28;3.17;;;2.97;;
21503;SDS011;10913;51.992;9.228;2022-07-24T08:24:54;3.00;;;2.70;;
21503;SDS011;10913;51.992;9.228;2022-07-24T08:27:19;5.57;;;3.38;;
21503;SDS011;10913;51.992;9.228;2022-07-24T08:29:44;5.35;;;3.20;;
21503;SDS011;10913;51.992;9.228;2022-07-24T08:32:10;4.63;;;3.80;;
21503;SDS011;10913;51.992;9.228;2022-07-24T08:34:36;3.60;;;3.30;;
21503;SDS011;10913;51.992;9.228;2022-07-24T08:37:01;3.30;;;3.00;;
21503;SDS011;10913;51.992;9.228;2022-07-24T08:39:27;3.70;;;3.20;;
21503;SDS011;10913;51.992;9.228;2022-07-24T08:41:52;3.50;;;3.10;;
21503;SDS011;10913;51.992;9.228;2022-07-24T08:44:17;4.30;;;3.22;;
21503;SDS011;10913;51.992;9.228;2022-07-24T08:46:43;4.40;;;3.95;;
21503;SDS011;10913;51.992;9.228;2022-07-24T08:49:12;5.25;;;3.63;;
21503;SDS011;10913;51.992;9.228;2022-07-24T08:51:39;4.78;;;3.78;;
21503;SDS011;10913;51.992;9.228;2022-07-24T08:54:06;4.20;;;3.60;;
21503;SDS011;10913;51.992;9.228;2022-07-24T08:56:32;4.85;;;3.90;;
21503;SDS011;10913;51.992;9.228;2022-07-24T08:58:59;4.53;;;3.65;;
21503;SDS011;10913;51.992;9.228;2022-07-24T09:01:25;4.13;;;3.63;;
21503;SDS011;10913;51.992;9.228;2022-07-24T09:03:51;4.30;;;3.55;;
21503;SDS011;10913;51.992;9.228;2022-07-24T09:06:17;4.25;;;3.85;;
21503;SDS011;10913;51.992;9.228;2022-07-24T09:08:56;5.93;;;3.92;;
21503;SDS011;10913;51.992;9.228;2022-07-24T09:11:23;4.65;;;3.95;;
21503;SDS011;10913;51.992;9.228;2022-07-24T09:13:50;4.57;;;4.10;;
21503;SDS011;10913;51.992;9.228;2022-07-24T09:16:42;4.68;;;3.60;;
21503;SDS011;10913;51.992;9.228;2022-07-24T09:19:08;4.18;;;3.88;;
21503;SDS011;10913;51.992;9.228;2022-07-24T09:21:36;4.97;;;4.10;;
21503;SDS011;10913;51.992;9.228;2022-07-24T09:24:19;5.03;;;4.00;;
21503;SDS011;10913;51.992;9.228;2022-07-24T09:29:21;4.95;;;4.45;;
21503;SDS011;10913;51.992;9.228;2022-07-24T09:31:59;6.57;;;3.67;;
21503;SDS011;10913;51.992;9.228;2022-07-24T09:34:26;6.28;;;3.97;;
21503;SDS011;10913;51.992;9.228;2022-07-24T09:36:54;5.57;;;3.70;;
21503;SDS011;10913;51.992;9.228;2022-07-24T09:39:28;3.77;;;3.47;;
21503;SDS011;10913;51.992;9.228;2022-07-24T09:41:57;4.40;;;4.00;;
21503;SDS011;10913;51.992;9.228;2022-07-24T09:44:23;4.60;;;4.10;;
21503;SDS011;10913;51.992;9.228;2022-07-24T09:46:57;3.95;;;3.65;;
21503;SDS011;10913;51.992;9.228;2022-07-24T09:49:30;4.82;;;3.60;;
21503;SDS011;10913;51.992;9.228;2022-07-24T09:54:33;5.50;;;3.95;;
21503;SDS011;10913;51.992;9.228;2022-07-24T09:59:55;4.35;;;3.95;;
21503;SDS011;10913;51.992;9.228;2022-07-24T10:02:30;3.85;;;3.55;;
21503;SDS011;10913;51.992;9.228;2022-07-24T10:04:57;4.20;;;3.78;;
21503;SDS011;10913;51.992;9.228;2022-07-24T10:07:24;3.80;;;3.50;;
21503;SDS011;10913;51.992;9.228;2022-07-24T10:09:54;4.40;;;4.00;;
21503;SDS011;10913;51.992;9.228;2022-07-24T10:12:22;4.25;;;3.95;;
21503;SDS011;10913;51.992;9.228;2022-07-24T10:14:53;4.95;;;4.10;;
21503;SDS011;10913;51.992;9.228;2022-07-24T10:17:21;4.63;;;3.88;;
21503;SDS011;10913;51.992;9.228;2022-07-24T10:20:12;4.85;;;4.38;;
21503;SDS011;10913;51.992;9.228;2022-07-24T10:23:03;4.22;;;3.80;;
21503;SDS011;10913;51.992;9.228;2022-07-24T10:25:31;4.63;;;4.03;;
21503;SDS011;10913;51.992;9.228;2022-07-24T10:28:11;4.63;;;3.90;;
21503;SDS011;10913;51.992;9.228;2022-07-24T10:30:45;4.18;;;3.85;;
21503;SDS011;10913;51.992;9.228;2022-07-24T10:33:10;4.65;;;4.03;;
21503;SDS011;10913;51.992;9.228;2022-07-24T10:35:36;5.15;;;4.43;;
21503;SDS011;10913;51.992;9.228;2022-07-24T10:38:09;5.45;;;4.32;;
21503;SDS011;10913;51.992;9.228;2022-07-24T10:40:44;6.25;;;4.50;;
21503;SDS011;10913;51.992;9.228;2022-07-24T10:43:20;5.50;;;5.00;;
21503;SDS011;10913;51.992;9.228;2022-07-24T10:46:09;4.53;;;4.15;;
21503;SDS011;10913;51.992;9.228;2022-07-24T10:48:34;4.90;;;4.40;;
21503;SDS011;10913;51.992;9.228;2022-07-24T10:51:11;6.50;;;4.25;;
21503;SDS011;10913;51.992;9.228;2022-07-24T10:53:49;4.90;;;4.00;;
21503;SDS011;10913;51.992;9.228;2022-07-24T10:59:05;4.15;;;3.85;;
21503;SDS011;10913;51.992;9.228;2022-07-24T11:01:45;4.47;;;4.07;;
21503;SDS011;10913;51.992;9.228;2022-07-24T11:09:19;4.40;;;4.00;;
21503;SDS011;10913;51.992;9.228;2022-07-24T11:14:24;4.78;;;4.10;;
21503;SDS011;10913;51.992;9.228;2022-07-24T11:20:01;4.78;;;4.20;;
21503;SDS011;10913;51.992;9.228;2022-07-24T11:22:38;4.72;;;4.32;;
21503;SDS011;10913;51.992;9.228;2022-07-24T11:25:05;5.10;;;4.40;;
21503;SDS011;10913;51.992;9.228;2022-07-24T11:27:48;5.65;;;4.25;;
21503;SDS011;10913;51.992;9.228;2022-07-24T11:30:16;5.20;;;4.78;;
21503;SDS011;10913;51.992;9.228;2022-07-24T11:32:43;5.00;;;4.60;;
21503;SDS011;10913;51.992;9.228;2022-07-24T11:35:09;4.63;;;4.22;;
21503;SDS011;10913;51.992;9.228;2022-07-24T11:37:36;5.13;;;4.70;;
21503;SDS011;10913;51.992;9.228;2022-07-24T11:40:03;5.65;;;5.10;;
21503;SDS011;10913;51.992;9.228;2022-07-24T11:42:30;5.30;;;4.90;;
21503;SDS011;10913;51.992;9.228;2022-07-24T11:44:56;4.93;;;4.45;;
21503;SDS011;10913;51.992;9.228;2022-07-24T11:47:23;5.10;;;4.70;;
21503;SDS011;10913;51.992;9.228;2022-07-24T11:52:20;4.70;;;4.30;;
21503;SDS011;10913;51.992;9.228;2022-07-24T11:54:51;4.80;;;4.40;;
21503;SDS011;10913;51.992;9.228;2022-07-24T11:57:22;5.18;;;4.70;;
21503;SDS011;10913;51.992;9.228;2022-07-24T11:59:55;5.30;;;4.80;;
21503;SDS011;10913;51.992;9.228;2022-07-24T12:02:21;5.55;;;5.10;;
21503;SDS011;10913;51.992;9.228;2022-07-24T12:04:47;5.03;;;4.50;;
21503;SDS011;10913;51.992;9.228;2022-07-24T12:07:15;5.15;;;4.75;;
21503;SDS011;10913;51.992;9.228;2022-07-24T12:09:54;5.03;;;4.63;;
21503;SDS011;10913;51.992;9.228;2022-07-24T12:15:08;5.03;;;4.63;;
21503;SDS011;10913;51.992;9.228;2022-07-24T12:20:20;5.68;;;5.07;;
21503;SDS011;10913;51.992;9.228;2022-07-24T12:22:46;4.82;;;4.30;;
21503;SDS011;10913;51.992;9.228;2022-07-24T12:25:12;5.40;;;4.90;;
21503;SDS011;10913;51.992;9.228;2022-07-24T12:27:40;5.57;;;4.68;;
21503;SDS011;10913;51.992;9.228;2022-07-24T12:30:23;5.18;;;4.68;;
21503;SDS011;10913;51.992;9.228;2022-07-24T12:32:53;4.80;;;4.40;;
21503;SDS011;10913;51.992;9.228;2022-07-24T12:38:34;5.22;;;4.57;;
21503;SDS011;10913;51.992;9.228;2022-07-24T12:43:28;5.43;;;4.93;;
21503;SDS011;10913;51.992;9.228;2022-07-24T12:46:09;5.30;;;4.80;;
21503;SDS011;10913;51.992;9.228;2022-07-24T12:48:36;5.57;;;5.05;;
21503;SDS011;10913;51.992;9.228;2022-07-24T12:51:06;5.30;;;4.80;;
21503;SDS011;10913;51.992;9.228;2022-07-24T12:53:38;5.50;;;5.00;;
21503;SDS011;10913;51.992;9.228;2022-07-24T12:56:09;6.88;;;4.97;;
21503;SDS011;10913;51.992;9.228;2022-07-24T12:58:49;5.32;;;4.82;;
21503;SDS011;10913;51.992;9.228;2022-07-24T13:03:54;4.95;;;4.45;;
21503;SDS011;10913;51.992;9.228;2022-07-24T13:06:37;4.70;;;4.30;;
21503;SDS011;10913;51.992;9.228;2022-07-24T13:09:05;5.20;;;4.57;;
21503;SDS011;10913;51.992;9.228;2022-07-24T13:11:34;4.78;;;4.35;;
21503;SDS011;10913;51.992;9.228;2022-07-24T13:14:00;5.18;;;4.68;;
21503;SDS011;10913;51.992;9.228;2022-07-24T13:16:29;5.15;;;4.65;;
21503;SDS011;10913;51.992;9.228;2022-07-24T13:18:56;5.38;;;4.85;;
21503;SDS011;10913;51.992;9.228;2022-07-24T13:21:23;5.38;;;4.88;;
21503;SDS011;10913;51.992;9.228;2022-07-24T13:23:48;5.30;;;4.70;;
21503;SDS011;10913;51.992;9.228;2022-07-24T13:26:13;5.13;;;4.68;;
21503;SDS011;10913;51.992;9.228;2022-07-24T13:28:39;5.22;;;4.55;;
21503;SDS011;10913;51.992;9.228;2022-07-24T13:31:05;5.13;;;4.50;;
21503;SDS011;10913;51.992;9.228;2022-07-24T13:33:31;7.32;;;4.40;;
21503;SDS011;10913;51.992;9.228;2022-07-24T13:35:56;5.32;;;4.82;;
21503;SDS011;10913;51.992;9.228;2022-07-24T13:38:22;5.07;;;4.63;;
21503;SDS011;10913;51.992;9.228;2022-07-24T13:40:47;5.72;;;5.03;;
21503;SDS011;10913;51.992;9.228;2022-07-24T13:43:13;4.72;;;4.32;;
21503;SDS011;10913;51.992;9.228;2022-07-24T13:45:38;5.72;;;4.15;;
21503;SDS011;10913;51.992;9.228;2022-07-24T13:48:04;5.03;;;4.53;;
21503;SDS011;10913;51.992;9.228;2022-07-24T13:50:29;5.10;;;4.47;;
21503;SDS011;10913;51.992;9.228;2022-07-24T13:52:55;5.60;;;4.13;;
21503;SDS011;10913;51.992;9.228;2022-07-24T13:55:20;5.45;;;4.20;;
21503;SDS011;10913;51.992;9.228;2022-07-24T13:57:46;5.15;;;4.55;;
21503;SDS011;10913;51.992;9.228;2022-07-24T14:00:11;4.93;;;4.47;;
21503;SDS011;10913;51.992;9.228;2022-07-24T14:02:38;4.90;;;4.25;;
21503;SDS011;10913;51.992;9.228;2022-07-24T14:05:04;4.80;;;4.40;;
21503;SDS011;10913;51.992;9.228;2022-07-24T14:07:30;5.00;;;4.60;;
21503;SDS011;10913;51.992;9.228;2022-07-24T14:09:55;5.35;;;4.70;;
21503;SDS011;10913;51.992;9.228;2022-07-24T14:12:21;5.10;;;4.70;;
21503;SDS011;10913;51.992;9.228;2022-07-24T14:14:46;5.28;;;4.78;;
21503;SDS011;10913;51.992;9.228;2022-07-24T14:17:12;5.38;;;4.80;;
21503;SDS011;10913;51.992;9.228;2022-07-24T14:19:38;6.88;;;4.95;;
21503;SDS011;10913;51.992;9.228;2022-07-24T14:22:04;4.95;;;4.55;;
21503;SDS011;10913;51.992;9.228;2022-07-24T14:24:29;5.10;;;4.70;;
21503;SDS011;10913;51.992;9.228;2022-07-24T14:26:55;5.03;;;4.63;;
21503;SDS011;10913;51.992;9.228;2022-07-24T14:29:20;5.43;;;4.80;;
21503;SDS011;10913;51.992;9.228;2022-07-24T14:31:46;5.47;;;4.75;;
21503;SDS011;10913;51.992;9.228;2022-07-24T14:34:11;5.05;;;4.65;;
21503;SDS011;10913;51.992;9.228;2022-07-24T14:36:37;5.00;;;4.30;;
21503;SDS011;10913;51.992;9.228;2022-07-24T14:39:03;5.50;;;5.00;;
21503;SDS011;10913;51.992;9.228;2022-07-24T14:41:29;4.90;;;4.50;;
21503;SDS011;10913;51.992;9.228;2022-07-24T14:43:54;4.97;;;4.57;;
21503;SDS011;10913;51.992;9.228;2022-07-24T14:46:20;4.60;;;4.20;;
21503;SDS011;10913;51.992;9.228;2022-07-24T14:48:45;5.82;;;4.97;;
21503;SDS011;10913;51.992;9.228;2022-07-24T14:51:11;4.80;;;4.40;;
21503;SDS011;10913;51.992;9.228;2022-07-24T14:53:36;5.68;;;4.85;;
21503;SDS011;10913;51.992;9.228;2022-07-24T14:56:01;4.93;;;4.53;;
21503;SDS011;10913;51.992;9.228;2022-07-24T14:58:27;5.07;;;4.57;;
21503;SDS011;10913;51.992;9.228;2022-07-24T15:00:52;4.78;;;4.40;;
21503;SDS011;10913;51.992;9.228;2022-07-24T15:03:18;5.18;;;4.68;;
21503;SDS011;10913;51.992;9.228;2022-07-24T15:05:43;5.03;;;4.30;;
21503;SDS011;10913;51.992;9.228;2022-07-24T15:08:08;6.03;;;4.97;;
21503;SDS011;10913;51.992;9.228;2022-07-24T15:10:34;5.40;;;4.90;;
21503;SDS011;10913;51.992;9.228;2022-07-24T15:12:59;4.95;;;4.55;;
21503;SDS011;10913;51.992;9.228;2022-07-24T15:15:24;5.07;;;4.50;;
21503;SDS011;10913;51.992;9.228;2022-07-24T15:17:50;4.85;;;4.32;;
21503;SDS011;10913;51.992;9.228;2022-07-24T15:20:15;5.60;;;5.10;;
21503;SDS011;10913;51.992;9.228;2022-07-24T15:22:41;5.22;;;4.70;;
21503;SDS011;10913;51.992;9.228;2022-07-24T15:25:06;5.20;;;4.65;;